Time;durP1;ratioP1;P1;durP2;ratioP2;P2;SDS_P1;SDS_P2;PMS_P1;PMS_P2;Temp;Humidity;BMP_temperature;BMP_pressure;BME280_temperature;BME280_humidity;BME280_pressure;Samples;Min_cycle;Max_cycle;Signal;HPM_P1;HPM_P2
2023/05/24 00:01:36;;;;;;;16.80;11.98;;;;;;;10.51;71.36;98541.53;5002967;28;20163;-76
2023/05/24 00:04:02;;;;;;;15.50;11.73;;;;;;;10.48;72.22;98548.19;4983983;28;20030;-75
2023/05/24 00:06:27;;;;;;;20.25;13.27;;;;;;;10.26;72.36;98544.47;5005059;28;20065;-75
2023/05/24 00:08:53;;;;;;;17.42;13.68;;;;;;;10.48;71.59;98548.19;5007093;28;20061;-76
2023/05/24 00:11:19;;;;;;;20.13;12.45;;;;;;;10.68;71.50;98553.22;4986085;28;20456;-75
2023/05/24 00:13:45;;;;;;;15.45;14.13;;;;;;;10.81;71.01;98540.31;5000226;28;20116;-76
2023/05/24 00:16:10;;;;;;;13.35;12.02;;;;;;;11.01;70.33;98543.44;4988734;28;20428;-75
2023/05/24 00:18:39;;;;;;;16.15;13.73;;;;;;;11.00;71.29;98541.78;5008577;28;20050;-75
2023/05/24 00:21:07;;;;;;;13.13;10.95;;;;;;;11.17;69.36;98541.03;5004528;28;20425;-75
2023/05/24 00:23:32;;;;;;;14.88;13.38;;;;;;;11.00;70.74;98539.09;5022868;28;20034;-75
2023/05/24 00:25:57;;;;;;;14.73;12.18;;;;;;;10.94;70.06;98541.94;4986186;28;20026;-76
2023/05/24 00:28:23;;;;;;;13.35;12.00;;;;;;;10.62;71.26;98532.63;4996769;28;20097;-75
2023/05/24 00:30:49;;;;;;;17.45;12.85;;;;;;;10.21;72.27;98544.34;5004273;28;20030;-76
2023/05/24 00:33:15;;;;;;;16.58;14.98;;;;;;;10.40;72.88;98535.09;5008965;28;20030;-76
2023/05/24 00:35:40;;;;;;;20.65;19.02;;;;;;;10.56;72.48;98537.06;4987583;28;20094;-76
2023/05/24 00:38:06;;;;;;;19.58;18.00;;;;;;;10.69;72.79;98539.50;4990314;28;20103;-76
2023/05/24 00:40:31;;;;;;;20.10;16.92;;;;;;;10.66;72.91;98537.31;4986247;28;20048;-75
2023/05/24 00:42:56;;;;;;;16.17;14.50;;;;;;;10.46;72.20;98528.75;5011081;28;20412;-75
2023/05/24 00:45:22;;;;;;;20.40;17.60;;;;;;;10.61;72.67;98542.59;5018839;28;20033;-76
2023/05/24 00:47:47;;;;;;;17.45;15.85;;;;;;;10.82;71.98;98528.50;4999308;28;20412;-75
2023/05/24 00:50:15;;;;;;;18.40;16.20;;;;;;;10.89;71.72;98539.97;5003834;28;20487;-76
2023/05/24 00:52:41;;;;;;;16.73;13.50;;;;;;;11.24;70.60;98530.94;4989938;28;20034;-76
2023/05/24 00:55:07;;;;;;;14.68;13.00;;;;;;;11.18;70.89;98523.81;4969515;28;20499;-76
2023/05/24 00:57:34;;;;;;;16.08;13.93;;;;;;;11.06;70.88;98519.28;4983402;28;20510;-76
2023/05/24 01:00:00;;;;;;;14.30;12.80;;;;;;;11.20;70.17;98519.00;5012776;28;20038;-75
2023/05/24 01:02:25;;;;;;;13.90;12.60;;;;;;;11.25;70.67;98522.59;5010862;28;20038;-75
2023/05/24 01:04:51;;;;;;;15.48;12.50;;;;;;;11.23;70.61;98522.03;4960264;28;20112;-76
2023/05/24 01:07:45;;;;;;;16.88;13.25;;;;;;;11.03;71.02;98517.06;4992181;28;21300;-75
2023/05/24 01:10:27;;;;;;;16.08;14.48;;;;;;;10.89;71.44;98517.56;4983048;28;20034;-75
2023/05/24 01:13:15;;;;;;;15.15;13.38;;;;;;;10.99;70.93;98512.41;4995951;28;20113;-76
2023/05/24 01:16:00;;;;;;;14.30;11.38;;;;;;;11.20;70.18;98508.22;4998892;28;20042;-76
2023/05/24 01:18:30;;;;;;;13.82;12.30;;;;;;;11.08;70.28;98506.38;4982948;28;20057;-76
2023/05/24 01:21:05;;;;;;;14.20;12.70;;;;;;;11.19;70.33;98503.88;5004525;28;20088;-76
2023/05/24 01:23:59;;;;;;;15.35;12.48;;;;;;;11.00;71.21;98509.47;4989117;28;20442;-75
2023/05/24 01:26:36;;;;;;;14.73;12.82;;;;;;;10.82;71.31;98517.72;5004850;28;20037;-75
2023/05/24 01:29:02;;;;;;;17.75;12.10;;;;;;;10.83;70.67;98505.03;4996318;28;20034;-74
2023/05/24 01:31:29;;;;;;;16.05;13.93;;;;;;;10.85;71.54;98511.03;5020232;28;20022;-74
2023/05/24 01:33:54;;;;;;;15.25;13.75;;;;;;;11.03;70.80;98506.28;5008517;28;20034;-74
2023/05/24 01:36:20;;;;;;;19.73;17.90;;;;;;;10.71;73.08;98509.66;5005919;28;20527;-74
2023/05/24 01:38:45;;;;;;;25.15;22.98;;;;;;;10.65;73.31;98516.81;5004587;28;20045;-74
2023/05/24 01:41:26;;;;;;;21.67;19.85;;;;;;;11.01;72.50;98516.50;4984157;28;20030;-75
2023/05/24 01:43:57;;;;;;;18.25;16.55;;;;;;;11.06;71.98;98518.47;5011519;28;20048;-75
2023/05/24 01:46:37;;;;;;;17.75;16.02;;;;;;;11.13;71.72;98512.94;4995414;28;20033;-76
2023/05/24 01:49:10;;;;;;;17.30;15.60;;;;;;;11.04;71.64;98509.78;4982732;28;20057;-74
2023/05/24 01:51:48;;;;;;;16.45;15.02;;;;;;;11.19;70.80;98509.28;4998667;28;20125;-76
2023/05/24 01:54:15;;;;;;;16.33;14.23;;;;;;;11.18;71.12;98515.75;4982006;28;20065;-76
2023/05/24 01:56:42;;;;;;;16.77;14.10;;;;;;;10.98;70.91;98500.81;4995399;28;20105;-76
2023/05/24 01:59:08;;;;;;;17.17;15.40;;;;;;;10.77;71.60;98504.13;4994142;28;20062;-76
2023/05/24 02:01:33;;;;;;;16.55;14.95;;;;;;;10.99;70.55;98507.81;5011790;28;20129;-76
2023/05/24 02:03:59;;;;;;;14.95;13.40;;;;;;;10.99;71.21;98513.19;4998294;28;20034;-76
2023/05/24 02:06:24;;;;;;;17.13;15.35;;;;;;;10.55;72.10;98515.78;5002952;28;20117;-76
2023/05/24 02:23:22;;;;;;;22.10;20.40;;;;;;;10.20;73.96;98530.06;5029334;28;20077;-75
2023/05/24 02:25:47;;;;;;;23.08;20.38;;;;;;;10.20;74.05;98523.84;5008320;28;20766;-73
2023/05/24 02:28:13;;;;;;;23.65;21.58;;;;;;;10.28;73.96;98526.19;5014239;28;20057;-73
2023/05/24 02:30:38;;;;;;;21.10;19.00;;;;;;;10.43;72.94;98513.91;5014128;28;20034;-76
2023/05/24 02:33:04;;;;;;;20.95;19.38;;;;;;;10.52;73.58;98511.69;4984385;28;20515;-74
2023/05/24 02:35:31;;;;;;;22.70;20.88;;;;;;;10.36;73.39;98520.47;5024122;28;20041;-75
2023/05/24 02:37:57;;;;;;;26.10;23.70;;;;;;;10.12;74.68;98516.97;4991455;28;20033;-75
2023/05/24 02:40:22;;;;;;;28.05;25.83;;;;;;;9.95;74.91;98525.91;5012054;28;20029;-73
2023/05/24 02:42:48;;;;;;;27.77;25.77;;;;;;;10.02;74.67;98523.94;4991114;28;20022;-75
2023/05/24 02:45:13;;;;;;;26.38;24.10;;;;;;;10.19;74.18;98522.22;5002303;28;20033;-75
2023/05/24 02:47:39;;;;;;;24.92;22.98;;;;;;;10.07;74.68;98529.44;4997538;28;20037;-75
2023/05/24 02:50:05;;;;;;;26.40;24.30;;;;;;;9.80;75.54;98528.25;5014303;28;20450;-74
2023/05/24 02:52:31;;;;;;;22.77;20.92;;;;;;;10.48;72.56;98526.66;4997640;28;20043;-74
2023/05/24 02:54:57;;;;;;;18.98;17.27;;;;;;;10.40;72.42;98530.53;4989889;28;20037;-73
2023/05/24 02:57:22;;;;;;;20.10;17.92;;;;;;;10.52;72.19;98527.84;5007684;28;20021;-74
2023/05/24 02:59:49;;;;;;;22.55;20.02;;;;;;;9.81;74.66;98533.38;4985781;28;20025;-74
2023/05/24 03:02:16;;;;;;;23.17;21.40;;;;;;;10.05;73.95;98536.94;4984563;28;20018;-75
2023/05/24 03:04:42;;;;;;;23.15;21.17;;;;;;;9.94;74.58;98541.22;4992337;28;20034;-75
2023/05/24 03:07:10;;;;;;;24.42;22.08;;;;;;;9.70;74.87;98534.19;4980417;28;20025;-75
2023/05/24 03:09:35;;;;;;;25.10;23.10;;;;;;;9.60;75.63;98545.50;5010065;28;20034;-74
2023/05/24 03:12:01;;;;;;;25.00;22.67;;;;;;;10.08;74.04;98536.47;5011219;28;20017;-75
2023/05/24 03:14:26;;;;;;;22.42;20.40;;;;;;;9.68;74.90;98533.59;4988938;28;20065;-74
2023/05/24 03:16:51;;;;;;;24.08;22.10;;;;;;;9.66;75.37;98538.38;4984884;28;20422;-74
2023/05/24 03:19:17;;;;;;;25.27;22.98;;;;;;;9.62;74.85;98538.00;4984666;28;20045;-76
2023/05/24 03:21:43;;;;;;;28.33;25.63;;;;;;;9.86;74.24;98538.06;5000779;28;20116;-75
2023/05/24 03:24:08;;;;;;;26.05;23.90;;;;;;;10.01;73.48;98541.13;4993622;28;20419;-75
2023/05/24 03:26:35;;;;;;;23.38;21.50;;;;;;;9.63;74.10;98534.28;5010672;28;20024;-74
2023/05/24 03:29:00;;;;;;;24.80;22.80;;;;;;;9.71;74.74;98531.25;4988792;28;20426;-74
2023/05/24 03:31:32;;;;;;;23.27;20.85;;;;;;;9.93;73.02;98530.72;4988699;28;20022;-76
2023/05/24 03:33:58;;;;;;;24.50;22.33;;;;;;;9.68;74.51;98530.91;5000649;28;20036;-74
2023/05/24 03:36:25;;;;;;;26.10;23.60;;;;;;;9.57;74.80;98540.56;5004107;28;20547;-75
2023/05/24 03:38:50;;;;;;;25.25;23.08;;;;;;;9.90;73.89;98526.59;4992577;28;20411;-74
2023/05/24 03:41:17;;;;;;;22.98;20.75;;;;;;;10.06;72.77;98522.44;4988326;28;20035;-74
2023/05/24 03:43:43;;;;;;;20.63;19.00;;;;;;;9.82;74.35;98529.66;5018223;28;20037;-74
2023/05/24 03:46:13;;;;;;;22.75;20.73;;;;;;;9.72;73.81;98530.22;5004513;28;20071;-75
2023/05/24 03:48:41;;;;;;;25.55;23.55;;;;;;;9.72;74.53;98532.91;5033528;28;20088;-75
2023/05/24 03:51:08;;;;;;;26.63;24.52;;;;;;;9.67;75.08;98530.06;5031264;28;20029;-75
2023/05/24 03:53:33;;;;;;;27.05;24.75;;;;;;;9.52;74.56;98526.19;4981177;28;20561;-74
2023/05/24 03:55:59;;;;;;;32.40;30.02;;;;;;;9.48;75.99;98531.19;5010589;28;20030;-74
2023/05/24 03:58:24;;;;;;;33.10;30.73;;;;;;;9.45;75.86;98541.59;5006980;28;20419;-73
2023/05/24 04:00:49;;;;;;;33.55;31.00;;;;;;;9.54;75.63;98540.22;5003317;28;20041;-74
2023/05/24 04:03:15;;;;;;;31.95;29.55;;;;;;;9.41;75.96;98535.84;4990562;28;20192;-74
2023/05/24 04:05:40;;;;;;;34.47;32.08;;;;;;;9.53;75.38;98533.19;4993541;28;20029;-73
2023/05/24 04:08:06;;;;;;;33.22;30.85;;;;;;;9.81;74.98;98540.63;4992416;28;20041;-72
2023/05/24 04:10:31;;;;;;;34.35;31.48;;;;;;;9.66;74.74;98531.13;5009556;28;20129;-72
2023/05/24 04:12:57;;;;;;;34.13;31.48;;;;;;;9.43;76.07;98538.28;4996692;28;20042;-71
2023/05/24 04:15:23;;;;;;;34.33;31.67;;;;;;;9.72;74.96;98538.28;4999051;28;20022;-72
2023/05/24 04:17:54;;;;;;;34.03;31.52;;;;;;;9.54;76.26;98538.34;4996487;28;20080;-72
2023/05/24 04:20:24;;;;;;;33.58;31.13;;;;;;;9.68;75.50;98537.06;5013267;28;20029;-72
2023/05/24 04:22:53;;;;;;;32.05;29.85;;;;;;;9.57;75.16;98537.88;5015860;28;20017;-72
2023/05/24 04:25:19;;;;;;;27.75;25.30;;;;;;;9.69;73.95;98533.34;4986635;28;20052;-73
2023/05/24 04:27:47;;;;;;;30.08;27.60;;;;;;;9.12;74.83;98533.16;4999591;28;20026;-72
2023/05/24 04:30:14;;;;;;;28.20;25.92;;;;;;;9.48;74.62;98541.13;4999654;28;20049;-72
2023/05/24 04:32:40;;;;;;;24.95;22.77;;;;;;;9.48;73.48;98530.34;4999459;28;20017;-73
2023/05/24 04:35:07;;;;;;;19.65;17.83;;;;;;;9.61;72.63;98536.34;4978039;28;20068;-73
2023/05/24 04:37:32;;;;;;;18.48;16.50;;;;;;;9.79;71.60;98542.72;4991695;28;20530;-72
2023/05/24 04:39:58;;;;;;;15.75;14.30;;;;;;;9.58;71.73;98531.47;4983080;28;20033;-74
2023/05/24 04:42:23;;;;;;;17.40;14.10;;;;;;;9.74;70.83;98546.09;5007373;28;20376;-75
2023/05/24 04:44:49;;;;;;;17.48;14.50;;;;;;;9.90;71.72;98539.22;5011289;28;20042;-74
2023/05/24 04:47:15;;;;;;;20.60;14.20;;;;;;;9.43;71.65;98541.81;5007120;28;20096;-74
2023/05/24 04:49:40;;;;;;;17.48;15.77;;;;;;;9.22;72.85;98544.19;4999276;28;20115;-74
2023/05/24 04:52:06;;;;;;;21.15;17.75;;;;;;;9.60;72.77;98550.88;5004858;28;20038;-74
2023/05/24 04:54:32;;;;;;;19.45;17.48;;;;;;;9.63;72.33;98547.72;5009100;28;20415;-74
2023/05/24 04:56:57;;;;;;;17.15;13.73;;;;;;;9.67;71.67;98546.22;5007149;28;20037;-73
2023/05/24 04:59:23;;;;;;;16.60;11.38;;;;;;;9.96;70.11;98551.78;4978334;28;20471;-73
2023/05/24 05:01:48;;;;;;;15.07;11.00;;;;;;;10.23;69.28;98548.44;4990412;28;20029;-74
2023/05/24 05:04:14;;;;;;;16.15;13.85;;;;;;;9.36;72.38;98549.13;5019450;28;20068;-74
2023/05/24 05:06:39;;;;;;;17.02;13.95;;;;;;;9.60;71.76;98550.88;5022591;28;20033;-72
2023/05/24 05:09:09;;;;;;;17.73;13.32;;;;;;;9.66;71.07;98559.91;5051903;23;20033;-73
2023/05/24 05:11:37;;;;;;;18.13;14.48;;;;;;;9.90;70.95;98563.44;5031909;28;20064;-74
2023/05/24 05:14:03;;;;;;;19.83;14.48;;;;;;;9.70;71.66;98561.06;5018367;28;20024;-73
2023/05/24 05:16:28;;;;;;;22.40;14.68;;;;;;;9.49;72.13;98570.47;5020752;28;20042;-74
2023/05/24 05:18:54;;;;;;;13.90;12.43;;;;;;;9.99;70.52;98565.56;4992100;28;20053;-74
2023/05/24 05:21:20;;;;;;;28.05;12.77;;;;;;;10.03;70.12;98576.69;5019569;28;20084;-72
2023/05/24 05:23:47;;;;;;;14.45;10.15;;;;;;;10.19;69.27;98570.66;5010308;28;20026;-73
2023/05/24 05:26:12;;;;;;;16.83;11.20;;;;;;;10.00;70.46;98577.16;4992827;28;20034;-73
2023/05/24 05:28:38;;;;;;;20.60;10.52;;;;;;;9.91;70.29;98578.53;5026002;28;20057;-73
2023/05/24 05:31:03;;;;;;;17.98;12.00;;;;;;;9.84;70.97;98585.91;5016667;28;20105;-73
2023/05/24 05:33:32;;;;;;;13.65;10.00;;;;;;;10.29;69.41;98576.31;5021113;28;20476;-73
2023/05/24 05:35:57;;;;;;;13.48;9.82;;;;;;;10.48;68.71;98585.88;5003791;28;20037;-73
2023/05/24 05:38:22;;;;;;;18.30;9.65;;;;;;;10.26;69.53;98584.84;5014615;28;20033;-73
2023/05/24 05:40:48;;;;;;;17.13;8.32;;;;;;;9.67;70.15;98588.41;5001004;28;20125;-73
2023/05/24 05:43:13;;;;;;;16.65;8.05;;;;;;;10.16;68.84;98581.91;5009463;28;20495;-73
2023/05/24 05:45:39;;;;;;;14.65;10.05;;;;;;;10.33;69.60;98582.84;5016651;28;20494;-73
2023/05/24 05:48:04;;;;;;;12.77;8.25;;;;;;;10.35;69.21;98586.13;5021074;28;20037;-73
2023/05/24 05:50:30;;;;;;;12.88;7.75;;;;;;;10.58;67.59;98591.53;5008012;28;20054;-73
2023/05/24 05:52:56;;;;;;;15.50;8.15;;;;;;;10.33;68.17;98583.69;4997633;28;20065;-73
2023/05/24 05:55:22;;;;;;;19.42;7.80;;;;;;;10.39;68.84;98587.28;5015882;28;20104;-73
2023/05/24 05:57:47;;;;;;;14.50;7.20;;;;;;;10.88;66.29;98589.50;5021020;28;20436;-74
2023/05/24 06:00:13;;;;;;;17.98;7.05;;;;;;;10.92;66.75;98592.56;5019380;28;20262;-74
2023/05/24 06:02:39;;;;;;;10.20;4.78;;;;;;;10.53;64.37;98594.09;5013791;28;20069;-74
2023/05/24 06:05:05;;;;;;;11.23;4.93;;;;;;;10.53;64.45;98596.78;5024003;28;20030;-74
2023/05/24 06:07:30;;;;;;;11.55;4.95;;;;;;;10.38;64.80;98591.06;5004444;28;20559;-74
2023/05/24 06:09:56;;;;;;;14.50;5.03;;;;;;;10.61;61.55;98591.06;5019320;28;20037;-75
2023/05/24 06:12:21;;;;;;;13.40;4.35;;;;;;;10.89;61.15;98585.75;4999090;28;20018;-74
2023/05/24 06:14:49;;;;;;;13.30;4.60;;;;;;;11.06;62.44;98592.03;5000685;28;20404;-75
2023/05/24 06:17:15;;;;;;;10.27;4.65;;;;;;;10.83;60.72;98594.78;5004440;28;20033;-75
2023/05/24 06:19:40;;;;;;;13.05;4.03;;;;;;;10.42;63.88;98594.91;5007587;28;20464;-75
2023/05/24 06:22:06;;;;;;;12.30;4.75;;;;;;;10.47;63.56;98595.03;5020745;28;20109;-73
2023/05/24 06:24:33;;;;;;;11.02;4.63;;;;;;;10.68;61.15;98605.22;5018704;28;20091;-74
2023/05/24 06:26:58;;;;;;;10.98;4.28;;;;;;;10.61;62.09;98599.13;4997420;28;20068;-75
2023/05/24 06:29:24;;;;;;;8.73;4.07;;;;;;;10.84;60.89;98612.59;5015602;28;20041;-74
2023/05/24 06:31:49;;;;;;;13.40;4.32;;;;;;;10.72;60.60;98605.56;5020583;28;20034;-75
2023/05/24 06:34:16;;;;;;;10.40;4.20;;;;;;;11.16;59.89;98610.31;5018651;28;20041;-74
2023/05/24 06:36:42;;;;;;;11.38;3.83;;;;;;;11.39;59.09;98610.25;5009116;28;20026;-74
2023/05/24 06:39:09;;;;;;;9.52;3.97;;;;;;;11.35;58.59;98613.66;5005802;28;20045;-74
2023/05/24 06:41:34;;;;;;;17.48;4.30;;;;;;;10.97;60.51;98611.50;5017285;28;20018;-74
2023/05/24 06:44:00;;;;;;;11.68;3.97;;;;;;;11.16;59.94;98620.25;5004869;28;20084;-74
2023/05/24 06:46:25;;;;;;;10.77;3.80;;;;;;;11.29;59.45;98612.75;5009565;28;20472;-74
2023/05/24 06:48:51;;;;;;;11.85;4.55;;;;;;;11.15;59.75;98610.56;5021944;28;20048;-74
2023/05/24 06:51:16;;;;;;;10.85;3.97;;;;;;;11.40;58.57;98621.84;4997701;28;20069;-74
2023/05/24 06:53:41;;;;;;;14.10;4.40;;;;;;;11.37;59.96;98625.03;5011169;28;20109;-74
2023/05/24 06:56:08;;;;;;;9.38;4.10;;;;;;;11.27;60.84;98622.94;5024432;28;20104;-74
2023/05/24 06:58:34;;;;;;;11.65;4.22;;;;;;;11.37;58.98;98622.31;5021202;28;20037;-74
2023/05/24 07:00:59;;;;;;;9.15;3.85;;;;;;;11.40;59.14;98624.56;5017526;28;20487;-74
2023/05/24 07:03:25;;;;;;;13.43;4.75;;;;;;;11.22;59.18;98630.13;5020489;28;20043;-74
2023/05/24 07:05:50;;;;;;;15.63;4.40;;;;;;;11.74;58.80;98629.03;5024415;28;20113;-74
2023/05/24 07:08:16;;;;;;;12.38;4.32;;;;;;;11.60;58.77;98633.84;5004512;28;20381;-74
2023/05/24 07:10:42;;;;;;;14.23;4.72;;;;;;;11.31;58.70;98624.13;5017282;28;20100;-74
2023/05/24 07:13:08;;;;;;;13.60;4.63;;;;;;;11.48;57.40;98635.78;5020474;28;20034;-74
2023/05/24 07:15:33;;;;;;;11.10;4.38;;;;;;;11.56;58.88;98631.88;5024226;28;20526;-74
2023/05/24 07:17:59;;;;;;;14.73;4.65;;;;;;;11.67;57.52;98629.19;5020805;28;20049;-75
2023/05/24 07:20:24;;;;;;;10.55;4.35;;;;;;;12.02;57.87;98634.41;5002124;28;20033;-74
2023/05/24 07:22:50;;;;;;;12.18;4.75;;;;;;;12.22;58.47;98637.47;5013752;28;20491;-74
2023/05/24 07:25:16;;;;;;;16.75;4.97;;;;;;;11.57;57.50;98636.22;5002107;28;20029;-74
2023/05/24 07:27:42;;;;;;;12.85;4.22;;;;;;;11.92;58.21;98636.13;5020297;28;20035;-74
2023/05/24 07:30:07;;;;;;;12.50;4.28;;;;;;;11.90;58.80;98628.28;5023892;28;20026;-74
2023/05/24 07:32:33;;;;;;;12.52;4.50;;;;;;;11.99;58.51;98637.63;5020379;28;20029;-73
2023/05/24 07:34:58;;;;;;;11.35;4.25;;;;;;;11.76;58.85;98640.41;5013838;28;20132;-74
2023/05/24 07:37:24;;;;;;;10.82;3.97;;;;;;;11.46;60.16;98634.41;5010610;28;20049;-74
2023/05/24 07:39:50;;;;;;;15.93;4.70;;;;;;;11.11;61.03;98635.28;5011333;28;20033;-74
2023/05/24 07:42:16;;;;;;;14.38;4.47;;;;;;;10.26;64.00;98644.88;5019768;28;20034;-73
2023/05/24 07:44:41;;;;;;;16.33;4.75;;;;;;;11.22;61.02;98635.50;5023249;28;20538;-74
2023/05/24 07:47:07;;;;;;;14.10;4.80;;;;;;;11.09;61.71;98637.41;5020551;28;20045;-74
2023/05/24 07:49:32;;;;;;;14.85;4.72;;;;;;;11.13;62.06;98633.16;4999571;28;20037;-73
2023/05/24 07:51:59;;;;;;;11.02;4.32;;;;;;;11.82;59.38;98631.34;5019645;28;20034;-74
2023/05/24 07:54:25;;;;;;;15.02;4.93;;;;;;;11.77;59.61;98633.94;5026944;28;20030;-74
2023/05/24 07:56:51;;;;;;;12.63;4.45;;;;;;;11.61;59.49;98640.09;4987183;28;20540;-73
2023/05/24 07:59:16;;;;;;;18.20;4.07;;;;;;;11.93;58.79;98632.34;5009784;28;20030;-74
2023/05/24 08:01:42;;;;;;;12.82;4.13;;;;;;;11.66;59.45;98632.09;5005047;28;20034;-73
2023/05/24 08:04:08;;;;;;;10.52;4.40;;;;;;;12.23;58.10;98639.09;5016117;28;20042;-73
2023/05/24 08:06:34;;;;;;;9.98;4.50;;;;;;;12.07;58.80;98641.78;5003151;28;20042;-73
2023/05/24 08:09:00;;;;;;;14.48;4.97;;;;;;;11.24;62.14;98641.47;5022945;28;20096;-74
2023/05/24 08:11:26;;;;;;;14.50;4.90;;;;;;;11.51;60.27;98645.25;5004914;28;20034;-73
2023/05/24 08:13:51;;;;;;;17.23;4.95;;;;;;;11.90;60.80;98639.06;5012307;28;20026;-74
2023/05/24 08:16:17;;;;;;;14.52;4.75;;;;;;;12.01;58.40;98640.88;5020012;28;20045;-74
2023/05/24 08:18:43;;;;;;;15.73;5.53;;;;;;;11.73;60.22;98643.59;5016144;28;20423;-74
2023/05/24 08:21:08;;;;;;;12.73;4.57;;;;;;;11.65;59.24;98646.63;5019467;28;20479;-74
2023/05/24 08:23:33;;;;;;;10.38;4.72;;;;;;;11.87;59.50;98644.13;5009344;28;20030;-73
2023/05/24 08:25:59;;;;;;;13.50;5.10;;;;;;;10.95;61.05;98651.34;5019346;28;20034;-74
2023/05/24 08:28:25;;;;;;;15.40;4.60;;;;;;;11.51;59.76;98656.06;5000995;28;20393;-74
2023/05/24 08:30:50;;;;;;;13.35;4.90;;;;;;;11.32;60.68;98657.31;5019200;28;20116;-73
2023/05/24 08:33:16;;;;;;;12.70;4.53;;;;;;;11.69;58.93;98653.22;5005952;28;20606;-74
2023/05/24 08:35:41;;;;;;;11.30;4.78;;;;;;;12.08;57.32;98656.94;5019054;28;20038;-74
2023/05/24 08:38:07;;;;;;;13.02;5.18;;;;;;;12.12;58.83;98648.09;5028595;28;20034;-74
2023/05/24 08:40:33;;;;;;;17.60;5.00;;;;;;;11.95;57.65;98652.63;5019313;28;20034;-74
2023/05/24 08:43:02;;;;;;;17.23;4.97;;;;;;;12.47;56.65;98656.00;5022364;28;20157;-73
2023/05/24 08:45:29;;;;;;;13.98;5.60;;;;;;;12.25;56.70;98663.97;5019004;28;20790;-74
2023/05/24 08:47:56;;;;;;;9.98;4.28;;;;;;;12.45;55.28;98664.34;5021896;28;20058;-73
2023/05/24 08:50:21;;;;;;;10.30;4.63;;;;;;;12.37;56.15;98655.81;4985003;28;20036;-75
2023/05/24 08:52:47;;;;;;;13.45;4.60;;;;;;;12.58;54.71;98657.00;4995326;28;20026;-75
2023/05/24 08:55:13;;;;;;;15.00;5.25;;;;;;;12.78;56.36;98657.28;5002069;28;20042;-75
2023/05/24 08:57:40;;;;;;;15.57;4.75;;;;;;;12.71;54.33;98659.34;5013725;28;20029;-75
2023/05/24 09:00:12;;;;;;;14.40;4.35;;;;;;;13.29;53.70;98654.28;5017596;28;20088;-75
2023/05/24 09:02:39;;;;;;;14.20;4.60;;;;;;;13.69;51.84;98643.97;5004261;28;20040;-75
2023/05/24 09:05:08;;;;;;;12.13;4.40;;;;;;;14.22;51.39;98653.19;5008863;28;20529;-75
2023/05/24 09:07:34;;;;;;;11.50;4.22;;;;;;;13.88;50.24;98658.78;5026443;28;20041;-75
2023/05/24 09:10:04;;;;;;;15.88;5.03;;;;;;;13.60;51.21;98648.19;5002150;28;20037;-75
2023/05/24 09:12:31;;;;;;;12.43;5.10;;;;;;;13.36;51.60;98654.91;5021956;28;20038;-75
2023/05/24 09:14:57;;;;;;;10.75;4.43;;;;;;;14.01;51.64;98648.63;5008464;28;20120;-75
2023/05/24 09:17:23;;;;;;;14.55;5.03;;;;;;;14.73;50.55;98643.59;5013024;28;20483;-75
2023/05/24 09:19:50;;;;;;;13.57;4.75;;;;;;;15.15;49.37;98645.25;5024882;28;20026;-75
2023/05/24 09:22:19;;;;;;;11.77;4.22;;;;;;;15.38;48.62;98635.06;5006975;28;20070;-75
2023/05/24 09:24:48;;;;;;;12.93;4.40;;;;;;;15.47;47.97;98638.94;5019693;28;20056;-75
2023/05/24 09:27:15;;;;;;;10.88;4.53;;;;;;;14.60;51.49;98636.75;4999667;28;20476;-75
2023/05/24 09:29:42;;;;;;;11.75;4.57;;;;;;;13.82;52.67;98642.75;5015458;28;20018;-75
2023/05/24 09:32:08;;;;;;;11.13;4.28;;;;;;;14.15;51.64;98647.16;5021424;28;20045;-75
2023/05/24 09:34:43;;;;;;;12.75;5.47;;;;;;;15.16;48.15;98644.19;5017385;28;20018;-75
2023/05/24 09:37:15;;;;;;;11.50;4.07;;;;;;;15.65;47.54;98638.47;4999145;28;20034;-75
2023/05/24 09:39:41;;;;;;;15.57;4.60;;;;;;;15.22;48.42;98645.84;4996650;28;20042;-76
2023/05/24 09:42:06;;;;;;;11.85;4.72;;;;;;;15.41;48.84;98640.78;5016867;28;20068;-76
2023/05/24 09:44:31;;;;;;;13.02;4.40;;;;;;;15.04;47.80;98651.72;5012206;28;20121;-76
2023/05/24 09:47:06;;;;;;;9.15;4.00;;;;;;;15.39;47.73;98637.50;4991862;28;20034;-75
2023/05/24 09:49:32;;;;;;;11.07;4.10;;;;;;;15.06;47.78;98644.13;5021392;28;20078;-76
2023/05/24 09:51:57;;;;;;;10.80;4.50;;;;;;;15.29;47.74;98652.91;5018171;28;20057;-76
2023/05/24 09:54:26;;;;;;;11.90;4.20;;;;;;;15.41;46.85;98640.78;4997730;28;20124;-76
2023/05/24 09:56:51;;;;;;;8.38;4.50;;;;;;;14.46;48.59;98649.09;5017472;28;20022;-76
2023/05/24 09:59:17;;;;;;;10.90;4.45;;;;;;;13.82;49.55;98643.56;5007927;28;20034;-76
2023/05/24 10:01:43;;;;;;;9.57;4.68;;;;;;;13.34;51.70;98645.41;5017647;28;20384;-75
2023/05/24 10:04:08;;;;;;;10.45;4.60;;;;;;;13.54;52.71;98654.59;5014286;28;20083;-75
2023/05/24 10:06:37;;;;;;;11.13;4.80;;;;;;;13.96;52.47;98643.16;5017474;28;20041;-76
2023/05/24 10:09:08;;;;;;;10.60;4.40;;;;;;;14.83;49.12;98649.94;5020511;28;20034;-76
2023/05/24 10:11:35;;;;;;;8.18;4.07;;;;;;;15.07;47.08;98645.78;4986750;28;20038;-76
2023/05/24 10:14:03;;;;;;;13.95;5.07;;;;;;;14.07;49.70;98644.91;4997343;28;20034;-76
2023/05/24 10:16:28;;;;;;;10.70;4.00;;;;;;;14.29;51.44;98645.66;4999757;28;20042;-76
2023/05/24 10:18:55;;;;;;;11.13;4.32;;;;;;;14.09;46.97;98648.19;5021000;28;20054;-75
2023/05/24 10:21:22;;;;;;;10.93;4.75;;;;;;;14.26;49.91;98651.59;5003850;28;20113;-76
2023/05/24 10:23:50;;;;;;;10.15;4.00;;;;;;;13.73;49.78;98649.69;5010657;28;20049;-76
2023/05/24 10:26:16;;;;;;;14.30;4.43;;;;;;;14.03;49.94;98654.59;5015410;28;20109;-76
2023/05/24 10:28:47;;;;;;;8.73;3.80;;;;;;;14.11;49.54;98651.44;5020610;28;20035;-76
2023/05/24 10:31:20;;;;;;;9.60;3.97;;;;;;;14.24;48.62;98653.72;5020110;28;20045;-75
2023/05/24 10:33:47;;;;;;;10.00;4.32;;;;;;;13.95;48.17;98646.94;4994309;28;20168;-75
2023/05/24 10:36:14;;;;;;;9.02;4.43;;;;;;;14.14;48.66;98640.91;5020545;28;20025;-75
2023/05/24 10:38:40;;;;;;;9.77;4.10;;;;;;;14.20;48.91;98644.50;5014490;28;20491;-76
2023/05/24 10:41:07;;;;;;;8.07;4.28;;;;;;;15.11;45.11;98630.59;5008575;28;20022;-76
2023/05/24 10:43:34;;;;;;;9.57;4.28;;;;;;;15.11;47.43;98635.19;4974469;28;20077;-76
2023/05/24 10:46:03;;;;;;;9.15;4.00;;;;;;;15.60;47.66;98628.41;5004118;28;20476;-75
2023/05/24 10:48:28;;;;;;;9.18;3.85;;;;;;;15.58;47.12;98624.31;4999121;28;20151;-76
2023/05/24 10:50:53;;;;;;;9.48;4.20;;;;;;;15.42;49.08;98619.88;5012173;28;20034;-77
2023/05/24 10:53:22;;;;;;;9.45;3.50;;;;;;;16.62;43.59;98626.72;5007199;28;20030;-75
2023/05/24 10:55:57;;;;;;;8.70;3.90;;;;;;;16.05;42.20;98621.47;5007229;28;20476;-76
2023/05/24 10:58:29;;;;;;;8.57;3.95;;;;;;;15.75;42.52;98625.72;5007308;28;20141;-76
2023/05/24 11:00:54;;;;;;;7.65;3.25;;;;;;;16.30;42.18;98616.88;5020394;28;20042;-76
2023/05/24 11:03:25;;;;;;;9.77;3.70;;;;;;;16.80;41.09;98618.00;5017175;28;20026;-75
2023/05/24 11:05:52;;;;;;;10.23;3.72;;;;;;;15.77;42.33;98623.59;4997284;28;20040;-76
2023/05/24 11:08:32;;;;;;;9.38;3.80;;;;;;;16.08;42.87;98624.44;4999203;28;20026;-76
2023/05/24 11:11:15;;;;;;;9.10;3.83;;;;;;;16.23;41.83;98619.06;4997299;28;20064;-76
2023/05/24 11:13:42;;;;;;;10.27;3.60;;;;;;;16.39;40.92;98615.25;4994599;28;20073;-76
2023/05/24 11:16:07;;;;;;;11.25;3.95;;;;;;;16.96;40.91;98616.88;5007054;28;20050;-76
2023/05/24 11:18:37;;;;;;;11.15;3.50;;;;;;;17.49;41.11;98602.56;5003927;28;20432;-76
2023/05/24 11:21:04;;;;;;;9.73;3.80;;;;;;;16.94;39.50;98610.91;5016266;28;20045;-76
2023/05/24 11:23:30;;;;;;;8.60;3.10;;;;;;;17.38;40.46;98605.59;5013366;28;20480;-75
2023/05/24 11:25:56;;;;;;;9.55;3.83;;;;;;;17.81;39.74;98600.25;5019771;28;20070;-76
2023/05/24 11:28:22;;;;;;;7.40;3.65;;;;;;;17.79;40.09;98601.63;5023965;28;20587;-76
2023/05/24 11:30:47;;;;;;;8.52;3.40;;;;;;;17.78;40.01;98606.25;5019969;28;20053;-76
2023/05/24 11:33:19;;;;;;;6.97;3.20;;;;;;;17.15;40.47;98609.75;5026950;28;20027;-76
2023/05/24 11:35:53;;;;;;;13.88;4.03;;;;;;;16.93;39.51;98609.25;5030238;28;20061;-76
2023/05/24 11:38:20;;;;;;;9.05;3.83;;;;;;;17.23;39.78;98603.72;4995901;28;20042;-76